createdAt,value
2018-05-16T00:00:27.887Z,91.21
2018-05-16T00:01:55.685Z,91.62
2018-05-16T00:03:23.179Z,91.06
2018-05-16T00:04:50.644Z,91.40
2018-05-16T00:06:21.945Z,90.62
2018-05-16T00:07:45.427Z,91.08
2018-05-16T00:09:16.855Z,90.60
2018-05-16T00:10:40.217Z,90.76
2018-05-16T00:12:07.580Z,90.43
2018-05-16T00:13:35.026Z,90.49
2018-05-16T00:15:02.500Z,90.87
2018-05-16T00:16:29.886Z,90.60
2018-05-16T00:17:57.259Z,90.77
2018-05-16T00:19:24.658Z,90.85
2018-05-16T00:20:52.079Z,90.27
2018-05-16T00:22:19.348Z,90.50
2018-05-16T00:23:46.580Z,90.25
2018-05-16T00:25:13.946Z,90.05
2018-05-16T00:26:41.349Z,89.75
2018-05-16T00:28:12.875Z,89.12
2018-05-16T00:29:36.166Z,89.32
2018-05-16T00:31:03.591Z,89.39
2018-05-16T00:32:30.899Z,89.17
2018-05-16T00:33:58.336Z,88.93
2018-05-16T00:35:25.743Z,89.14
2018-05-16T00:36:56.964Z,88.86
2018-05-16T00:38:24.270Z,88.42
2018-05-16T00:39:51.813Z,87.79
2018-05-16T00:41:15.127Z,87.83
2018-05-16T00:42:46.741Z,88.44
2018-05-16T00:44:09.994Z,88.47
2018-05-16T00:45:37.353Z,87.94
2018-05-16T00:47:08.750Z,87.50
2018-05-16T00:48:36.172Z,87.51
2018-05-16T00:49:59.517Z,87.78
2018-05-16T00:51:31.016Z,87.83
2018-05-16T00:52:58.315Z,87.92
2018-05-16T00:54:21.778Z,88.14
2018-05-16T00:55:53.025Z,88.49
2018-05-16T00:57:16.312Z,88.37
2018-05-16T00:58:47.725Z,87.98
2018-05-16T01:00:10.884Z,88.09
2018-05-16T01:01:38.253Z,88.95
2018-05-16T01:03:09.711Z,88.61
2018-05-16T01:04:37.033Z,88.40
2018-05-16T01:06:04.247Z,87.80
2018-05-16T01:07:27.716Z,87.68
2018-05-16T01:08:55.158Z,88.00
2018-05-16T01:10:22.633Z,87.89
2018-05-16T01:11:50.083Z,88.10
2018-05-16T01:13:21.380Z,88.14
2018-05-16T01:14:44.727Z,88.29
2018-05-16T01:16:15.917Z,88.03
2018-05-16T01:17:43.455Z,88.08
2018-05-16T01:19:10.726Z,88.15
2018-05-16T01:20:34.285Z,88.12
2018-05-16T01:22:05.410Z,87.83
2018-05-16T01:23:28.879Z,88.03
2018-05-16T01:24:56.182Z,87.92
2018-05-16T01:26:23.585Z,87.97
2018-05-16T01:27:50.968Z,87.91
2018-05-16T01:29:18.388Z,87.98
2018-05-16T01:30:45.710Z,88.19
2018-05-16T01:32:17.243Z,88.23
2018-05-16T01:33:40.622Z,88.30
2018-05-16T01:35:07.926Z,88.63
2018-05-16T01:36:35.389Z,88.31
2018-05-16T01:38:02.762Z,88.05
2018-05-16T01:39:34.164Z,87.98
2018-05-16T01:40:57.504Z,88.09
2018-05-16T01:42:24.963Z,88.02
2018-05-16T01:43:56.353Z,88.04
2018-05-16T01:45:19.623Z,87.96
2018-05-16T01:46:46.992Z,87.95
2018-05-16T01:48:18.568Z,87.95
2018-05-16T01:49:42.049Z,88.46
2018-05-16T01:51:13.569Z,87.99
2018-05-16T01:52:36.833Z,88.47
2018-05-16T01:54:08.123Z,88.56
2018-05-16T01:55:35.502Z,88.45
2018-05-16T01:56:58.756Z,88.85
2018-05-16T01:58:26.063Z,88.65
2018-05-16T01:59:57.587Z,87.76
2018-05-16T02:01:20.884Z,88.31
2018-05-16T02:02:48.244Z,87.66
2018-05-16T02:04:19.816Z,87.17
2018-05-16T02:05:43.068Z,87.09
2018-05-16T02:07:10.501Z,87.12
2018-05-16T02:08:37.908Z,87.06
2018-05-16T02:10:05.260Z,87.36
2018-05-16T02:11:32.621Z,87.53
2018-05-16T02:13:04.174Z,88.03
2018-05-16T02:14:31.351Z,87.92
2018-05-16T02:15:58.801Z,87.36
2018-05-16T02:17:22.074Z,87.89
2018-05-16T02:18:53.537Z,88.00
2018-05-16T02:20:21.046Z,88.19
2018-05-16T02:21:48.224Z,88.54
2018-05-16T02:23:15.723Z,88.52
2018-05-16T02:24:38.945Z,88.39
2018-05-16T02:26:10.402Z,88.40
2018-05-16T02:27:33.774Z,87.90
2018-05-16T02:29:01.053Z,88.38
2018-05-16T02:30:32.501Z,88.25
2018-05-16T02:31:55.586Z,88.86
2018-05-16T02:33:22.941Z,88.38
2018-05-16T02:34:50.419Z,87.14
2018-05-16T02:36:21.796Z,86.84
2018-05-16T02:37:49.112Z,87.07
2018-05-16T02:39:12.541Z,88.41
2018-05-16T02:40:44.039Z,88.89
2018-05-16T02:42:11.383Z,88.87
2018-05-16T02:43:34.664Z,88.54
2018-05-16T02:45:01.949Z,88.97
2018-05-16T02:46:34.402Z,87.58
2018-05-16T02:47:56.792Z,88.37
2018-05-16T02:49:24.017Z,88.77
2018-05-16T02:50:55.510Z,88.23
2018-05-16T02:52:18.765Z,88.36
2018-05-16T02:53:46.164Z,87.63
2018-05-16T02:55:17.472Z,87.18
2018-05-16T02:56:40.807Z,87.47
2018-05-16T02:58:08.201Z,87.09
2018-05-16T02:59:39.491Z,86.94
2018-05-16T03:01:06.911Z,86.80
2018-05-16T03:02:30.303Z,87.17
2018-05-16T03:03:57.671Z,87.26
2018-05-16T03:05:29.316Z,87.02
2018-05-16T03:06:52.486Z,86.83
2018-05-16T03:08:19.608Z,86.55
2018-05-16T03:09:47.122Z,86.74
2018-05-16T03:11:14.423Z,87.28
2018-05-16T03:12:45.849Z,87.68
2018-05-16T03:14:12.957Z,87.21
2018-05-16T03:15:36.496Z,86.57
2018-05-16T03:17:07.738Z,86.46
2018-05-16T03:18:35.185Z,86.60
2018-05-16T03:19:58.534Z,86.86
2018-05-16T03:21:25.877Z,87.58
2018-05-16T03:22:53.270Z,87.64
2018-05-16T03:24:20.750Z,87.58
2018-05-16T03:25:48.103Z,87.68
2018-05-16T03:27:15.594Z,87.75
2018-05-16T03:28:42.843Z,87.73
2018-05-16T03:30:10.240Z,87.96
2018-05-16T03:31:37.903Z,87.99
2018-05-16T03:33:05.176Z,88.18
2018-05-16T03:34:32.407Z,88.39
2018-05-16T03:36:03.758Z,88.79
2018-05-16T03:37:31.124Z,89.01
2018-05-16T03:38:54.446Z,88.88
2018-05-16T03:40:25.885Z,88.43
2018-05-16T03:41:53.146Z,88.15
2018-05-16T03:43:20.697Z,88.45
2018-05-16T03:44:47.884Z,88.69
2018-05-16T03:46:11.031Z,88.27
2018-05-16T03:47:42.442Z,87.74
2018-05-16T03:49:05.762Z,87.82
2018-05-16T03:50:33.221Z,87.10
2018-05-16T03:52:00.489Z,87.47
2018-05-16T03:53:27.779Z,87.36
2018-05-16T03:54:59.264Z,87.83
2018-05-16T03:56:22.544Z,88.00
2018-05-16T03:57:49.913Z,87.46
2018-05-16T03:59:17.327Z,87.53
2018-05-16T04:00:44.531Z,87.32
2018-05-16T04:02:16.240Z,87.68
2018-05-16T04:03:43.337Z,88.08
2018-05-16T04:05:10.474Z,87.95
2018-05-16T04:06:37.741Z,87.76
2018-05-16T04:08:01.054Z,87.59
2018-05-16T04:09:32.416Z,87.81
2018-05-16T04:10:55.649Z,87.60
2018-05-16T04:12:23.179Z,87.77
2018-05-16T04:13:54.476Z,87.83
2018-05-16T04:15:17.605Z,87.66
2018-05-16T04:16:48.603Z,87.74
2018-05-16T04:18:16.013Z,87.05
2018-05-16T04:19:39.393Z,87.22
2018-05-16T04:21:06.774Z,87.28
2018-05-16T04:22:34.267Z,87.40
2018-05-16T04:24:05.465Z,86.80
2018-05-16T04:25:32.934Z,87.54
2018-05-16T04:26:56.126Z,87.51
2018-05-16T04:28:23.593Z,87.00
2018-05-16T04:29:51.247Z,87.47
2018-05-16T04:31:18.290Z,87.33
2018-05-16T04:32:45.551Z,87.39
2018-05-16T04:34:16.982Z,87.47
2018-05-16T04:35:44.245Z,87.55
2018-05-16T04:37:07.418Z,87.37
2018-05-16T04:38:38.788Z,87.64
2018-05-16T04:40:06.109Z,87.53
2018-05-16T04:41:29.206Z,87.55
2018-05-16T04:43:00.575Z,87.49
2018-05-16T04:44:24.075Z,88.19
2018-05-16T04:45:55.464Z,88.53
2018-05-16T04:47:18.682Z,87.95
2018-05-16T04:48:46.142Z,87.98
2018-05-16T04:50:17.552Z,87.82
2018-05-16T04:51:40.828Z,88.24
2018-05-16T04:53:12.294Z,88.56
2018-05-16T04:54:35.522Z,88.01
2018-05-16T04:56:02.910Z,88.42
2018-05-16T04:57:30.376Z,87.90
2018-05-16T04:58:57.715Z,88.01
2018-05-16T05:00:25.027Z,87.53
2018-05-16T05:01:56.394Z,87.19
2018-05-16T05:03:19.864Z,87.15
2018-05-16T05:04:47.124Z,87.84
2018-05-16T05:06:14.533Z,88.15
2018-05-16T05:07:45.914Z,87.83
2018-05-16T05:09:09.224Z,86.97
2018-05-16T05:10:36.716Z,87.56
2018-05-16T05:12:04.405Z,87.75
2018-05-16T05:13:35.664Z,87.20
2018-05-16T05:14:58.807Z,86.84
2018-05-16T05:16:26.209Z,87.02
2018-05-16T05:17:57.441Z,86.67
2018-05-16T05:19:20.668Z,87.08
2018-05-16T05:20:48.093Z,87.42
2018-05-16T05:22:15.666Z,87.72
2018-05-16T05:23:42.883Z,87.48
2018-05-16T05:25:14.313Z,86.98
2018-05-16T05:26:37.723Z,86.94
2018-05-16T05:28:05.009Z,86.86
2018-05-16T05:29:36.535Z,87.31
2018-05-16T05:30:59.939Z,87.37
2018-05-16T05:32:31.192Z,87.33
2018-05-16T05:33:58.535Z,87.02
2018-05-16T05:35:25.964Z,87.05
2018-05-16T05:36:53.300Z,86.41
2018-05-16T05:38:20.523Z,86.51
2018-05-16T05:39:43.825Z,86.11
2018-05-16T05:41:11.335Z,87.06
2018-05-16T05:42:38.682Z,86.03
2018-05-16T05:44:10.245Z,84.86
2018-05-16T05:45:33.759Z,85.26
2018-05-16T05:47:05.349Z,83.81
2018-05-16T05:48:33.492Z,83.28
2018-05-16T05:49:59.672Z,82.96
2018-05-16T05:51:22.784Z,84.41
2018-05-16T05:52:50.318Z,83.91
2018-05-16T05:54:17.674Z,83.17
2018-05-16T05:55:45.172Z,83.83
2018-05-16T05:57:12.653Z,82.65
2018-05-16T05:58:44.164Z,80.99
2018-05-16T06:00:07.555Z,81.54
2018-05-16T06:01:38.753Z,82.07
2018-05-16T06:03:06.196Z,81.44
2018-05-16T06:04:29.683Z,81.67
2018-05-16T06:05:56.960Z,81.99
2018-05-16T06:07:28.591Z,80.19
2018-05-16T06:08:55.902Z,80.60
2018-05-16T06:10:23.339Z,79.91
2018-05-16T06:11:50.761Z,80.61
2018-05-16T06:13:14.023Z,79.11
2018-05-16T06:14:41.487Z,78.87
2018-05-16T06:16:13.130Z,79.58
2018-05-16T06:17:40.619Z,79.35
2018-05-16T06:19:04.012Z,77.73
2018-05-16T06:20:35.552Z,77.89
2018-05-16T06:21:58.957Z,78.67
2018-05-16T06:23:26.504Z,79.36
2018-05-16T06:24:53.954Z,77.47
2018-05-16T06:26:25.227Z,77.09
2018-05-16T06:27:48.705Z,77.33
2018-05-16T06:29:16.120Z,78.60
2018-05-16T06:30:43.706Z,80.61
2018-05-16T06:32:11.279Z,80.94
2018-05-16T06:33:42.697Z,78.67
2018-05-16T06:35:06.173Z,80.06
2018-05-16T06:36:33.747Z,81.40
2018-05-16T06:38:01.050Z,80.84
2018-05-16T06:39:28.594Z,80.61
2018-05-16T06:41:00.007Z,79.91
2018-05-16T06:42:23.228Z,79.70
2018-05-16T06:43:50.700Z,79.15
2018-05-16T06:45:18.367Z,79.12
2018-05-16T06:46:45.823Z,78.23
2018-05-16T06:48:13.152Z,75.59
2018-05-16T06:49:40.698Z,74.42
2018-05-16T06:51:08.160Z,75.11
2018-05-16T06:52:35.677Z,75.20
2018-05-16T06:54:03.023Z,75.91
2018-05-16T06:55:30.570Z,75.13
2018-05-16T06:56:57.821Z,73.70
2018-05-16T06:58:25.394Z,73.65
2018-05-16T06:59:52.902Z,74.87
2018-05-16T07:01:24.482Z,73.79
2018-05-16T07:02:47.947Z,74.56
2018-05-16T07:04:15.455Z,75.48
2018-05-16T07:05:42.775Z,75.18
2018-05-16T07:07:14.378Z,74.53
2018-05-16T07:08:37.793Z,74.67
2018-05-16T07:10:09.349Z,74.76
2018-05-16T07:11:36.663Z,76.83
2018-05-16T07:13:00.331Z,77.38
2018-05-16T07:14:31.718Z,74.16
2018-05-16T07:15:55.214Z,73.81
2018-05-16T07:17:22.785Z,73.61
2018-05-16T07:18:49.757Z,73.80
2018-05-16T07:20:21.270Z,73.04
2018-05-16T07:21:44.725Z,74.56
2018-05-16T07:23:16.151Z,72.60
2018-05-16T07:24:39.618Z,71.04
2018-05-16T07:26:11.438Z,70.16
2018-05-16T07:27:38.870Z,69.52
2018-05-16T07:29:02.350Z,71.75
2018-05-16T07:30:33.837Z,72.57
2018-05-16T07:32:01.129Z,73.04
2018-05-16T07:33:28.667Z,71.88
2018-05-16T07:34:55.898Z,73.23
2018-05-16T07:36:19.566Z,73.46
2018-05-16T07:37:47.075Z,71.29
2018-05-16T07:39:18.461Z,72.50
2018-05-16T07:40:45.879Z,72.69
2018-05-16T07:42:09.273Z,75.13
2018-05-16T07:43:36.546Z,74.67
2018-05-16T07:45:03.903Z,74.36
2018-05-16T07:46:31.442Z,73.74
2018-05-16T07:48:02.810Z,73.58
2018-05-16T07:49:26.077Z,73.81
2018-05-16T07:50:53.631Z,72.92
2018-05-16T07:52:25.007Z,72.73
2018-05-16T07:53:48.568Z,74.42
2018-05-16T07:55:15.897Z,72.54
2018-05-16T07:56:47.420Z,74.05
2018-05-16T07:58:11.014Z,72.96
2018-05-16T07:59:38.358Z,72.46
2018-05-16T08:01:10.126Z,68.45
2018-05-16T08:02:33.413Z,66.55
2018-05-16T08:04:01.059Z,68.03
2018-05-16T08:05:32.192Z,68.24
2018-05-16T08:06:55.852Z,69.22
2018-05-16T08:08:27.207Z,69.21
2018-05-16T08:09:50.710Z,68.77
2018-05-16T08:11:18.137Z,68.27
2018-05-16T08:12:45.623Z,66.75
2018-05-16T08:14:13.113Z,67.30
2018-05-16T08:15:40.663Z,67.89
2018-05-16T08:17:11.998Z,69.20
2018-05-16T08:18:35.473Z,69.42
2018-05-16T08:20:03.029Z,69.33
2018-05-16T08:21:34.571Z,68.71
2018-05-16T08:22:57.995Z,68.18
2018-05-16T08:24:29.305Z,67.26
2018-05-16T08:25:52.885Z,67.06
2018-05-16T08:27:20.339Z,65.25
2018-05-16T08:28:47.701Z,62.37
2018-05-16T08:30:15.248Z,63.04
2018-05-16T08:31:42.678Z,65.29
2018-05-16T08:33:10.334Z,64.00
2018-05-16T08:34:37.852Z,64.14
2018-05-16T08:36:05.327Z,65.38
2018-05-16T08:37:32.795Z,65.05
2018-05-16T08:39:00.315Z,62.96
2018-05-16T08:40:27.733Z,62.80
2018-05-16T08:41:55.138Z,63.95
2018-05-16T08:43:22.797Z,63.23
2018-05-16T08:44:50.264Z,64.33
2018-05-16T08:46:17.624Z,64.31
2018-05-16T08:47:45.130Z,65.06
2018-05-16T08:49:12.824Z,64.52
2018-05-16T08:50:44.211Z,63.88
2018-05-16T08:52:07.775Z,64.71
2018-05-16T08:53:35.386Z,63.23
2018-05-16T08:55:02.893Z,65.55
2018-05-16T08:56:30.515Z,62.74
2018-05-16T08:58:02.047Z,61.40
2018-05-16T08:59:25.592Z,61.06
2018-05-16T09:00:53.148Z,61.93
2018-05-16T09:02:20.741Z,61.46
2018-05-16T09:03:52.318Z,59.60
2018-05-16T09:05:15.727Z,61.37
2018-05-16T09:06:43.374Z,61.56
2018-05-16T09:08:10.942Z,58.94
2018-05-16T09:09:38.529Z,58.91
2018-05-16T09:11:10.032Z,59.83
2018-05-16T09:12:33.689Z,58.98
2018-05-16T09:14:00.874Z,58.87
2018-05-16T09:15:28.285Z,58.71
2018-05-16T09:16:59.895Z,59.30
2018-05-16T09:18:23.557Z,57.42
2018-05-16T09:19:55.059Z,56.75
2018-05-16T09:21:18.708Z,56.38
2018-05-16T09:22:50.188Z,59.37
2018-05-16T09:24:23.385Z,56.98
2018-05-16T09:25:50.734Z,55.62
2018-05-16T09:27:18.333Z,57.38
2018-05-16T09:28:49.926Z,56.10
2018-05-16T09:30:17.500Z,55.16
2018-05-16T09:31:41.023Z,56.16
2018-05-16T09:33:08.509Z,59.34
2018-05-16T09:34:36.068Z,58.24
2018-05-16T09:36:03.465Z,56.63
2018-05-16T09:37:30.944Z,54.98
2018-05-16T09:38:58.483Z,56.17
2018-05-16T09:40:25.780Z,55.91
2018-05-16T09:42:06.847Z,56.60
2018-05-16T09:43:30.126Z,54.05
2018-05-16T09:44:57.495Z,56.12
2018-05-16T09:46:29.132Z,55.47
2018-05-16T09:47:52.691Z,55.67
2018-05-16T09:49:20.058Z,56.60
2018-05-16T09:50:47.810Z,58.56
2018-05-16T09:52:15.268Z,59.06
2018-05-16T09:53:42.765Z,56.33
2018-05-16T09:55:10.178Z,56.71
2018-05-16T09:56:37.902Z,57.25
2018-05-16T09:58:09.451Z,52.36
2018-05-16T09:59:33.013Z,54.30
2018-05-16T10:01:00.591Z,53.14
2018-05-16T10:02:27.802Z,56.71
2018-05-16T10:03:55.384Z,55.25
2018-05-16T10:05:22.753Z,56.62
2018-05-16T10:06:50.250Z,55.38
2018-05-16T10:08:17.993Z,53.58
2018-05-16T10:09:45.447Z,54.78
2018-05-16T10:11:13.108Z,56.27
2018-05-16T10:12:44.636Z,56.22
2018-05-16T10:14:08.066Z,54.24
2018-05-16T10:15:35.775Z,56.16
2018-05-16T10:17:07.180Z,56.36
2018-05-16T10:18:30.674Z,58.09
2018-05-16T10:19:58.006Z,58.08
2018-05-16T10:21:25.415Z,55.23
2018-05-16T10:22:52.836Z,54.09
2018-05-16T10:24:24.245Z,53.50
2018-05-16T10:25:47.682Z,53.46
2018-05-16T10:27:15.345Z,54.44
2018-05-16T10:28:42.903Z,53.83
2018-05-16T10:30:10.316Z,54.91
2018-05-16T10:31:41.804Z,57.15
2018-05-16T10:33:05.215Z,54.86
2018-05-16T10:34:32.820Z,54.27
2018-05-16T10:36:00.518Z,54.56
2018-05-16T10:37:28.038Z,57.19
2018-05-16T10:38:59.661Z,57.30
2018-05-16T10:40:27.116Z,57.02
2018-05-16T10:41:50.623Z,56.84
2018-05-16T10:43:18.281Z,56.88
2018-05-16T10:44:45.945Z,56.76
2018-05-16T10:46:13.408Z,56.52
2018-05-16T10:47:40.749Z,56.67
2018-05-16T10:49:12.286Z,57.81
2018-05-16T10:50:35.706Z,56.99
2018-05-16T10:52:03.333Z,57.75
2018-05-16T10:53:30.762Z,59.37
2018-05-16T10:54:58.130Z,57.18
2018-05-16T10:56:25.491Z,56.92
2018-05-16T10:57:53.130Z,57.53
2018-05-16T10:59:20.740Z,57.47
2018-05-16T11:00:48.360Z,56.43
2018-05-16T11:02:19.797Z,58.79
2018-05-16T11:03:47.293Z,60.25
2018-05-16T11:05:10.783Z,59.17
2018-05-16T11:06:38.411Z,59.75
2018-05-16T11:08:05.894Z,60.64
2018-05-16T11:09:33.385Z,61.75
2018-05-16T11:11:00.811Z,61.41
2018-05-16T11:12:32.446Z,58.07
2018-05-16T11:13:59.739Z,58.27
2018-05-16T11:15:23.192Z,59.09
2018-05-16T11:16:50.664Z,58.75
2018-05-16T11:18:18.259Z,59.41
2018-05-16T11:19:49.614Z,60.37
2018-05-16T11:21:17.173Z,62.88
2018-05-16T11:22:40.744Z,61.41
2018-05-16T11:24:08.166Z,63.38
2018-05-16T11:25:35.665Z,63.97
2018-05-16T11:27:07.305Z,63.95
2018-05-16T11:28:34.705Z,62.21
2018-05-16T11:30:02.152Z,62.61
2018-05-16T11:31:29.877Z,62.19
2018-05-16T11:32:57.417Z,64.01
2018-05-16T11:34:20.760Z,61.84
2018-05-16T11:35:48.189Z,60.59
2018-05-16T11:37:15.743Z,62.01
2018-05-16T11:38:43.304Z,62.69
2018-05-16T11:40:14.839Z,61.43
2018-05-16T11:41:42.434Z,60.89
2018-05-16T11:43:09.782Z,60.34
2018-05-16T11:44:37.197Z,60.07
2018-05-16T11:46:04.485Z,61.04
2018-05-16T11:47:28.170Z,60.59
2018-05-16T11:48:59.606Z,62.22
2018-05-16T11:50:23.146Z,61.98
2018-05-16T11:51:50.726Z,63.37
2018-05-16T11:53:18.265Z,62.27
2018-05-16T11:54:45.801Z,62.34
2018-05-16T11:56:17.397Z,63.13
2018-05-16T11:57:44.707Z,61.63
2018-05-16T11:59:08.096Z,62.51
2018-05-16T12:00:35.509Z,61.44
2018-05-16T12:02:02.929Z,62.36
2018-05-16T12:03:30.186Z,62.54
2018-05-16T12:05:01.677Z,62.45
2018-05-16T12:06:25.168Z,63.77
2018-05-16T12:07:52.662Z,62.85
2018-05-16T12:09:20.263Z,62.22
2018-05-16T12:10:47.723Z,62.35
2018-05-16T12:12:15.201Z,63.37
2018-05-16T12:13:42.777Z,63.42
2018-05-16T12:15:10.110Z,63.59
2018-05-16T12:16:37.677Z,63.45
2018-05-16T12:18:09.159Z,63.17
2018-05-16T12:19:32.327Z,63.17
2018-05-16T12:20:59.815Z,62.98
2018-05-16T12:22:27.403Z,63.02
2018-05-16T12:23:54.830Z,64.67
2018-05-16T12:25:26.261Z,63.12
2018-05-16T12:26:49.869Z,63.61
2018-05-16T12:28:21.380Z,64.75
2018-05-16T12:29:44.741Z,62.94
2018-05-16T12:31:12.172Z,63.08
2018-05-16T12:32:39.556Z,63.42
2018-05-16T12:34:07.167Z,62.90
2018-05-16T12:35:38.703Z,63.80
2018-05-16T12:37:02.138Z,63.56
2018-05-16T12:38:33.643Z,64.30
2018-05-16T12:39:57.175Z,64.63
2018-05-16T12:41:28.525Z,63.88
2018-05-16T12:42:51.941Z,64.43
2018-05-16T12:44:19.484Z,65.26
2018-05-16T12:45:51.048Z,63.45
2018-05-16T12:47:14.426Z,65.10
2018-05-16T12:48:42.008Z,64.05
2018-05-16T12:50:09.542Z,63.63
2018-05-16T12:51:36.848Z,63.69
2018-05-16T12:53:08.449Z,62.88
2018-05-16T12:54:31.914Z,61.95
2018-05-16T12:55:59.121Z,63.20
2018-05-16T12:57:30.662Z,62.09
2018-05-16T12:58:54.266Z,62.60
2018-05-16T13:00:21.871Z,63.29
2018-05-16T13:01:53.297Z,62.14
2018-05-16T13:03:16.991Z,62.58
2018-05-16T13:04:44.528Z,62.16
2018-05-16T13:06:16.006Z,61.86
2018-05-16T13:07:43.469Z,60.66
2018-05-16T13:09:06.914Z,62.67
2018-05-16T13:10:34.599Z,58.73
2018-05-16T13:12:02.115Z,58.97
2018-05-16T13:13:29.257Z,60.28
2018-05-16T13:14:56.747Z,59.60
2018-05-16T13:16:28.362Z,58.30
2018-05-16T13:17:51.985Z,56.23
2018-05-16T13:19:19.406Z,53.73
2018-05-16T13:20:50.898Z,55.42
2018-05-16T13:22:14.197Z,55.58
2018-05-16T13:23:41.896Z,55.41
2018-05-16T13:25:09.389Z,56.07
2018-05-16T13:26:36.872Z,56.09
2018-05-16T13:28:04.336Z,55.66
2018-05-16T13:29:35.664Z,55.06
2018-05-16T13:30:59.153Z,53.45
2018-05-16T13:32:26.320Z,54.52
2018-05-16T13:33:53.941Z,54.91
2018-05-16T13:35:21.453Z,55.83
2018-05-16T13:36:49.079Z,54.78
2018-05-16T13:38:20.467Z,56.10
2018-05-16T13:39:43.941Z,55.12
2018-05-16T13:41:11.455Z,55.09
2018-05-16T13:42:38.996Z,55.83
2018-05-16T13:44:06.618Z,56.54
2018-05-16T13:45:34.039Z,55.30
2018-05-16T13:47:01.466Z,54.17
2018-05-16T13:48:28.862Z,52.74
2018-05-16T13:49:56.533Z,53.17
2018-05-16T13:51:28.034Z,52.97
2018-05-16T13:52:51.606Z,52.11
2018-05-16T13:54:19.085Z,53.85
2018-05-16T13:55:50.582Z,53.97
2018-05-16T13:57:14.136Z,52.03
2018-05-16T13:58:41.532Z,54.57
2018-05-16T14:00:08.993Z,52.72
2018-05-16T14:01:36.498Z,51.67
2018-05-16T14:03:03.841Z,51.63
2018-05-16T14:04:35.421Z,54.03
2018-05-16T14:06:02.929Z,51.66
2018-05-16T14:07:26.225Z,52.74
2018-05-16T14:08:53.730Z,52.37
2018-05-16T14:10:21.378Z,52.26
2018-05-16T14:11:48.936Z,51.30
2018-05-16T14:13:16.409Z,54.08
2018-05-16T14:14:43.909Z,52.57
2018-05-16T14:16:11.455Z,53.21
2018-05-16T14:17:38.954Z,53.24
2018-05-16T14:19:06.406Z,53.83
2018-05-16T14:20:34.138Z,54.04
2018-05-16T14:22:01.627Z,54.06
2018-05-16T14:23:29.100Z,53.11
2018-05-16T14:24:56.744Z,54.08
2018-05-16T14:26:24.400Z,52.05
2018-05-16T14:27:51.865Z,53.73
2018-05-16T14:29:19.447Z,52.67
2018-05-16T14:30:50.929Z,52.91
2018-05-16T14:32:18.515Z,53.50
2018-05-16T14:33:41.945Z,54.51
2018-05-16T14:35:09.484Z,52.92
2018-05-16T14:36:37.053Z,53.44
2018-05-16T14:38:08.488Z,53.69
2018-05-16T14:39:32.066Z,54.59
2018-05-16T14:40:59.518Z,53.46
2018-05-16T14:42:26.814Z,53.86
2018-05-16T14:43:58.244Z,54.01
2018-05-16T14:45:21.836Z,56.01
2018-05-16T14:46:49.218Z,54.51
2018-05-16T14:48:21.707Z,54.77
2018-05-16T14:49:48.296Z,54.19
2018-05-16T14:51:11.755Z,53.71
2018-05-16T14:52:39.150Z,52.87
2018-05-16T14:54:06.751Z,52.56
2018-05-16T14:55:34.276Z,53.40
2018-05-16T14:57:01.696Z,55.89
2018-05-16T14:58:33.206Z,55.44
2018-05-16T14:59:56.646Z,56.52
2018-05-16T15:01:24.023Z,55.55
2018-05-16T15:02:51.508Z,55.51
2018-05-16T15:04:22.892Z,56.06
2018-05-16T15:05:50.352Z,54.29
2018-05-16T15:07:13.960Z,56.24
2018-05-16T15:08:41.480Z,56.00
2018-05-16T15:10:08.783Z,55.51
2018-05-16T15:11:36.135Z,55.89
2018-05-16T15:13:03.595Z,56.50
2018-05-16T15:14:30.917Z,56.22
2018-05-16T15:15:58.504Z,55.93
2018-05-16T15:17:25.787Z,54.67
2018-05-16T15:18:53.201Z,55.23
2018-05-16T15:20:20.787Z,56.47
2018-05-16T15:21:48.103Z,57.50
2018-05-16T15:23:15.661Z,57.43
2018-05-16T15:24:43.270Z,57.92
2018-05-16T15:26:10.698Z,56.80
2018-05-16T15:27:38.192Z,57.21
2018-05-16T15:29:09.650Z,57.78
2018-05-16T15:30:37.043Z,56.85
2018-05-16T15:32:00.594Z,56.42
2018-05-16T15:33:27.953Z,54.77
2018-05-16T15:34:55.435Z,54.20
2018-05-16T15:36:26.923Z,54.30
2018-05-16T15:37:50.456Z,55.92
2018-05-16T15:39:17.876Z,54.72
2018-05-16T15:40:49.525Z,55.25
2018-05-16T15:42:13.049Z,55.24
2018-05-16T15:43:40.607Z,55.77
2018-05-16T15:45:07.912Z,57.85
2018-05-16T15:46:39.580Z,56.89
2018-05-16T15:48:02.966Z,56.23
2018-05-16T15:49:30.548Z,55.00
2018-05-16T15:50:58.069Z,54.06
2018-05-16T15:52:26.396Z,54.62
2018-05-16T15:53:52.784Z,55.18
2018-05-16T15:55:20.445Z,53.49
2018-05-16T15:56:47.972Z,55.25
2018-05-16T15:58:15.276Z,56.08
2018-05-16T15:59:42.775Z,54.08
2018-05-16T16:01:14.405Z,55.97
2018-05-16T16:02:37.832Z,54.52
2018-05-16T16:04:09.379Z,54.41
2018-05-16T16:05:36.815Z,54.61
2018-05-16T16:07:00.254Z,55.55
2018-05-16T16:08:27.657Z,55.69
2018-05-16T16:09:59.225Z,53.93
2018-05-16T16:11:22.616Z,54.03
2018-05-16T16:12:49.880Z,53.99
2018-05-16T16:14:17.471Z,54.73
2018-05-16T16:15:45.139Z,54.91
2018-05-16T16:17:12.453Z,54.60
2018-05-16T16:18:40.018Z,55.43
2018-05-16T16:20:11.357Z,56.48
2018-05-16T16:21:34.861Z,56.32
2018-05-16T16:23:02.358Z,56.63
2018-05-16T16:24:29.928Z,56.16
2018-05-16T16:25:57.345Z,57.04
2018-05-16T16:27:24.901Z,56.98
2018-05-16T16:28:52.380Z,55.58
2018-05-16T16:30:24.014Z,54.65
2018-05-16T16:31:51.370Z,54.72
2018-05-16T16:33:14.817Z,54.94
2018-05-16T16:34:42.097Z,54.73
2018-05-16T16:36:09.549Z,55.68
2018-05-16T16:37:41.103Z,56.92
2018-05-16T16:39:04.552Z,55.91
2018-05-16T16:40:31.924Z,56.47
2018-05-16T16:42:03.319Z,57.81
2018-05-16T16:43:30.762Z,57.41
2018-05-16T16:44:54.225Z,56.90
2018-05-16T16:46:21.727Z,57.50
2018-05-16T16:47:53.096Z,58.46
2018-05-16T16:49:16.599Z,59.05
2018-05-16T16:50:44.098Z,58.59
2018-05-16T16:52:11.501Z,59.17
2018-05-16T16:53:38.971Z,58.38
2018-05-16T16:55:06.484Z,59.58
2018-05-16T16:56:33.929Z,58.33
2018-05-16T16:58:01.523Z,57.89
2018-05-16T16:59:33.031Z,57.80
2018-05-16T17:00:56.260Z,58.87
2018-05-16T17:02:23.767Z,59.45
2018-05-16T17:03:50.916Z,59.34
2018-05-16T17:05:18.525Z,58.60
2018-05-16T17:06:50.046Z,56.89
2018-05-16T17:08:13.508Z,58.24
2018-05-16T17:09:41.090Z,56.14
2018-05-16T17:11:08.711Z,57.30
2018-05-16T17:12:40.231Z,57.17
2018-05-16T17:14:03.598Z,56.82
2018-05-16T17:15:35.122Z,57.51
2018-05-16T17:16:58.445Z,57.93
2018-05-16T17:18:29.976Z,57.98
2018-05-16T17:19:57.543Z,57.96
2018-05-16T17:21:21.006Z,58.07
2018-05-16T17:22:48.414Z,60.32
2018-05-16T17:24:20.024Z,60.78
2018-05-16T17:25:43.500Z,60.46
2018-05-16T17:27:16.179Z,61.02
2018-05-16T17:28:38.643Z,61.08
2018-05-16T17:30:10.239Z,61.91
2018-05-16T17:31:33.702Z,61.67
2018-05-16T17:33:00.944Z,60.96
2018-05-16T17:34:32.513Z,61.53
2018-05-16T17:35:55.653Z,61.19
2018-05-16T17:37:23.173Z,61.40
2018-05-16T17:38:50.837Z,62.33
2018-05-16T17:40:18.347Z,62.95
2018-05-16T17:41:45.827Z,61.55
2018-05-16T17:43:13.317Z,62.32
2018-05-16T17:44:40.897Z,61.66
2018-05-16T17:46:08.601Z,61.61
2018-05-16T17:47:39.932Z,62.13
2018-05-16T17:49:07.406Z,62.21
2018-05-16T17:50:30.833Z,61.81
2018-05-16T17:51:58.182Z,62.37
2018-05-16T17:53:25.631Z,62.28
2018-05-16T17:54:53.066Z,62.33
2018-05-16T17:56:24.573Z,62.56
2018-05-16T17:57:48.033Z,62.45
2018-05-16T17:59:15.315Z,62.49
2018-05-16T18:00:42.783Z,61.80
2018-05-16T18:02:10.375Z,62.47
2018-05-16T18:03:37.708Z,61.90
2018-05-16T18:05:05.133Z,62.62
2018-05-16T18:06:32.761Z,61.46
2018-05-16T18:08:00.112Z,62.20
2018-05-16T18:09:27.629Z,61.07
2018-05-16T18:10:54.924Z,61.61
2018-05-16T18:12:22.514Z,61.05
2018-05-16T18:13:53.967Z,60.81
2018-05-16T18:15:21.442Z,59.95
2018-05-16T18:16:44.731Z,60.13
2018-05-16T18:18:12.076Z,59.85
2018-05-16T18:19:43.665Z,59.16
2018-05-16T18:21:07.021Z,59.17
2018-05-16T18:22:34.437Z,59.27
2018-05-16T18:24:06.028Z,59.34
2018-05-16T18:25:29.263Z,58.72
2018-05-16T18:27:00.484Z,58.75
2018-05-16T18:28:28.112Z,59.38
2018-05-16T18:29:55.632Z,59.07
2018-05-16T18:31:23.249Z,58.33
2018-05-16T18:32:46.416Z,58.63
2018-05-16T18:34:13.857Z,58.26
2018-05-16T18:35:41.417Z,58.59
2018-05-16T18:37:12.950Z,58.93
2018-05-16T18:38:36.357Z,59.25
2018-05-16T18:40:03.648Z,59.57
2018-05-16T18:41:30.967Z,59.73
2018-05-16T18:42:58.484Z,60.21
2018-05-16T18:44:29.409Z,60.54
2018-05-16T18:45:52.913Z,60.42